»·PEaware :: N590DG A09-KPSP

N590DG :: A09-KPSP

FLIGHT INFORMATION

Flight Status: Arrived
Operator: Privately registered:
United States
More flights under this callsign
Pilot: Fred K. (14478)
Aircraft: PIPER PA-28 CHEROKEE ARCHER
(P28A)
More flights by this aircraft type
Origin: A09 Eagle Airpark
United States
Destination: KPSP Palm Springs Intl
United States
More flights between these airports :: More routes between these airports
Route: ZELMA V538 TNP V370 PSP
File this flight plan on PilotEdge
Remarks:
Altitude:
(Current/Filed)
6,500ft
Speed:
(Current/Filed)
110kts
Departed: 29-Sep-17 09:44 PM
Arrived: 29-Sep-17 10:51 PM
Distance/Time
Traveled:
113nm/1:07
Distance/Time
To Go:
Arrived

Flight Plot

Page will automatically refresh every two minutes.

Flight plan parsing failed; only flown route is shown


Map Options




Map Legend


Flown Route
Filed Route
Departure Airport
Arrival Airport
Navaid (VOR, NDB)
Fix

Horizontal Profiles

Position Reports

Time Latitude Longitude Heading Altitude Ground
Speed
29-Sep-17 21:39 34.890152 -114.616174 90 478ft 0kts
29-Sep-17 21:40 34.890152 -114.616170 90 478ft 0kts
29-Sep-17 21:41 34.890152 -114.616167 90 478ft 0kts
29-Sep-17 21:42 34.890152 -114.616163 90 478ft 0kts
29-Sep-17 21:43 34.890308 -114.616037 8 478ft 1kts
29-Sep-17 21:44 34.891500 -114.616069 339 478ft 5kts
29-Sep-17 21:45 34.891645 -114.616248 246 478ft 0kts
29-Sep-17 21:46 34.891639 -114.616264 246 478ft 0kts
29-Sep-17 21:47 34.893836 -114.616540 323 478ft 2kts
29-Sep-17 21:48 34.880931 -114.616484 183 771ft 80kts
29-Sep-17 21:49 34.867705 -114.630708 250 1601ft 76kts
29-Sep-17 21:50 34.860111 -114.654861 248 2395ft 79kts
29-Sep-17 21:51 34.852379 -114.680638 251 3151ft 81kts
29-Sep-17 21:52 34.839906 -114.703758 219 4106ft 85kts
29-Sep-17 21:53 34.819022 -114.717801 207 5090ft 87kts
29-Sep-17 21:54 34.797403 -114.731747 207 6240ft 91kts
29-Sep-17 21:55 34.769345 -114.749634 208 6549ft 135kts
29-Sep-17 21:56 34.738687 -114.775026 243 6483ft 131kts
29-Sep-17 21:57 34.743598 -114.817509 286 6485ft 129kts
29-Sep-17 21:58 34.753988 -114.858416 286 6490ft 118kts
29-Sep-17 21:59 34.764098 -114.896502 290 6505ft 126kts
29-Sep-17 22:00 34.776021 -114.937438 290 6505ft 122kts
29-Sep-17 22:01 34.784910 -114.976328 279 6503ft 123kts
29-Sep-17 22:02 34.786626 -115.019083 267 6520ft 130kts
29-Sep-17 22:03 34.784612 -115.062497 267 6511ft 121kts
29-Sep-17 22:04 34.783273 -115.102599 269 6509ft 122kts
29-Sep-17 22:05 34.783919 -115.144415 273 6509ft 119kts
29-Sep-17 22:06 34.786194 -115.183406 274 6502ft 113kts
29-Sep-17 22:07 34.788174 -115.222055 273 6516ft 120kts
29-Sep-17 22:08 34.789896 -115.264414 272 6536ft 128kts
29-Sep-17 22:09 34.790727 -115.308131 271 6550ft 131kts
29-Sep-17 22:10 34.774979 -115.341177 187 6529ft 132kts
29-Sep-17 22:11 34.738839 -115.348029 194 6543ft 134kts
29-Sep-17 22:12 34.703245 -115.361833 202 6551ft 135kts
29-Sep-17 22:13 34.668844 -115.379404 204 6544ft 130kts
29-Sep-17 22:14 34.635760 -115.396085 202 6535ft 127kts
29-Sep-17 22:15 34.602550 -115.411154 201 6533ft 128kts
29-Sep-17 22:16 34.568393 -115.425574 200 6555ft 133kts
29-Sep-17 22:17 34.532956 -115.440212 200 6570ft 135kts
29-Sep-17 22:18 34.497723 -115.455345 201 6564ft 131kts
29-Sep-17 22:19 34.463608 -115.470186 201 6560ft 130kts
29-Sep-17 22:20 34.429614 -115.485425 202 6558ft 127kts
29-Sep-17 22:21 34.396685 -115.500250 201 6556ft 124kts
29-Sep-17 22:22 34.364243 -115.514624 201 6561ft 125kts
29-Sep-17 22:23 34.332217 -115.530260 219 6557ft 122kts
29-Sep-17 22:24 34.309215 -115.549641 217 6567ft 118kts
29-Sep-17 22:25 34.279488 -115.579431 226 6573ft 128kts
29-Sep-17 22:26 34.258125 -115.605538 226 6566ft 126kts
29-Sep-17 22:27 34.233321 -115.633913 225 6564ft 126kts
29-Sep-17 22:28 34.206653 -115.663899 225 6597ft 132kts
29-Sep-17 22:29 34.179236 -115.694530 225 6591ft 134kts
29-Sep-17 22:30 34.151863 -115.725421 225 6588ft 133kts
29-Sep-17 22:31 34.124733 -115.755855 225 6572ft 127kts
29-Sep-17 22:32 34.102051 -115.785969 245 6557ft 124kts
29-Sep-17 22:33 34.085705 -115.824464 245 6580ft 128kts
29-Sep-17 22:34 34.069450 -115.862268 245 6562ft 122kts
29-Sep-17 22:35 34.057589 -115.899303 260 6555ft 118kts
29-Sep-17 22:36 34.051029 -115.938757 259 6565ft 124kts
29-Sep-17 22:37 34.040115 -115.978859 250 6568ft 123kts
29-Sep-17 22:38 34.026068 -116.015679 245 6560ft 125kts
29-Sep-17 22:39 34.008813 -116.053734 243 6566ft 124kts
29-Sep-17 22:40 33.995216 -116.089723 250 6539ft 113kts
29-Sep-17 22:41 33.983032 -116.124902 247 6530ft 114kts
29-Sep-17 22:42 33.970254 -116.160198 247 6527ft 115kts
29-Sep-17 22:43 33.957367 -116.195491 248 6530ft 114kts
29-Sep-17 22:44 33.943716 -116.230945 246 6525ft 117kts
29-Sep-17 22:45 33.930104 -116.267868 249 6107ft 122kts
29-Sep-17 22:46 33.916627 -116.304119 246 5536ft 123kts
29-Sep-17 22:47 33.900534 -116.340015 233 5038ft 122kts
29-Sep-17 22:48 33.873909 -116.366056 208 4763ft 121kts
29-Sep-17 22:49 33.844607 -116.386355 219 3696ft 121kts
29-Sep-17 22:50 33.821522 -116.413650 234 2554ft 103kts
29-Sep-17 22:51 33.807492 -116.441471 236 1824ft 92kts
29-Sep-17 22:52 33.797243 -116.466313 262 1306ft 75kts
29-Sep-17 22:53 33.807612 -116.485375 323 1004ft 72kts
29-Sep-17 22:54 33.823769 -116.499569 323 527ft 64kts
29-Sep-17 22:55 33.830006 -116.504425 54 480ft 0kts
29-Sep-17 22:56 33.828427 -116.502711 136 480ft 16kts
29-Sep-17 22:57 33.824957 -116.499600 132 480ft 7kts
29-Sep-17 22:58 33.824898 -116.499149 53 480ft 0kts

Navigation Log

Ident Type
Flight plan parsing failed, navigation log unavailable